createdAt,value
2023-12-05T00:00:02.973Z,100711.94
2023-12-05T00:02:34.954Z,100715.34
2023-12-05T00:05:11.296Z,100712.06
2023-12-05T00:07:44.634Z,100707.75
2023-12-05T00:10:17.496Z,100705.19
2023-12-05T00:12:49.579Z,100694.94
2023-12-05T00:15:22.009Z,100692.19
2023-12-05T00:17:54.408Z,100684.47
2023-12-05T00:20:29.669Z,100692.47
2023-12-05T00:23:01.553Z,100695.09
2023-12-05T00:25:35.192Z,100694.94
2023-12-05T00:28:07.480Z,100685.94
2023-12-05T00:30:39.833Z,100689.59
2023-12-05T00:33:13.113Z,100690.00
2023-12-05T00:35:49.296Z,100684.06
2023-12-05T00:38:21.213Z,100695.34
2023-12-05T00:40:53.675Z,100696.75
2023-12-05T00:43:25.446Z,100692.25
2023-12-05T00:45:57.723Z,100691.72
2023-12-05T00:48:29.810Z,100695.94
2023-12-05T00:51:04.782Z,100694.00
2023-12-05T00:53:36.742Z,100695.47
2023-12-05T00:56:15.968Z,100688.50
2023-12-05T00:58:48.875Z,100681.28
2023-12-05T01:01:23.145Z,100691.97
2023-12-05T01:03:58.282Z,100684.56
2023-12-05T01:06:33.554Z,100688.66
2023-12-05T01:09:07.544Z,100690.25
2023-12-05T01:11:40.165Z,100690.09
2023-12-05T01:14:12.399Z,100682.03
2023-12-05T01:16:46.632Z,100693.75
2023-12-05T01:19:18.889Z,100680.41
2023-12-05T01:21:54.273Z,100675.66
2023-12-05T01:24:27.409Z,100677.00
2023-12-05T01:26:59.973Z,100676.94
2023-12-05T01:29:32.155Z,100677.00
2023-12-05T01:32:04.561Z,100678.97
2023-12-05T01:34:36.789Z,100676.00
2023-12-05T01:37:31.743Z,100671.63
2023-12-05T01:40:23.538Z,100667.47
2023-12-05T01:43:07.965Z,100671.81
2023-12-05T01:45:40.321Z,100664.88
2023-12-05T01:48:14.861Z,100667.38
2023-12-05T01:50:47.913Z,100668.94
2023-12-05T01:53:25.077Z,100663.38
2023-12-05T01:55:57.221Z,100665.53
2023-12-05T01:58:30.101Z,100654.63
2023-12-05T02:01:02.251Z,100663.53
2023-12-05T02:03:35.386Z,100646.97
2023-12-05T02:06:08.030Z,100651.97
2023-12-05T02:08:44.034Z,100649.97
2023-12-05T02:11:17.896Z,100646.91
2023-12-05T02:13:53.384Z,100650.25
2023-12-05T02:16:34.874Z,100638.59
2023-12-05T02:19:37.927Z,100627.28
2023-12-05T02:22:16.175Z,100630.00
2023-12-05T02:25:07.961Z,100622.09
2023-12-05T02:27:43.918Z,100616.91
2023-12-05T02:30:16.321Z,100615.13
2023-12-05T02:32:48.511Z,100617.88
2023-12-05T02:35:21.294Z,100609.38
2023-12-05T02:38:00.917Z,100609.72
2023-12-05T02:40:41.494Z,100612.00
2023-12-05T02:43:22.987Z,100606.38
2023-12-05T02:46:08.663Z,100606.66
2023-12-05T02:48:42.938Z,100606.47
2023-12-05T02:51:15.722Z,100596.47
2023-12-05T02:53:47.656Z,100604.00
2023-12-05T02:56:20.189Z,100608.63
2023-12-05T02:58:54.729Z,100600.19
2023-12-05T03:01:26.934Z,100597.94
2023-12-05T03:03:59.215Z,100595.00
2023-12-05T03:06:31.550Z,100588.47
2023-12-05T03:09:05.068Z,100600.19
2023-12-05T03:11:37.209Z,100595.50
2023-12-05T03:14:11.748Z,100605.66
2023-12-05T03:16:45.256Z,100590.59
2023-12-05T03:19:17.956Z,100590.91
2023-12-05T03:21:50.655Z,100589.91
2023-12-05T03:24:22.589Z,100591.00
2023-12-05T03:26:54.740Z,100593.00
2023-12-05T03:29:29.707Z,100604.91
2023-12-05T03:32:01.801Z,100596.81
2023-12-05T03:34:33.804Z,100593.00
2023-12-05T03:37:05.906Z,100589.28
2023-12-05T03:39:38.002Z,100593.31
2023-12-05T03:42:10.412Z,100599.28
2023-12-05T03:44:45.025Z,100596.03
2023-12-05T03:47:17.271Z,100602.94
2023-12-05T03:49:49.331Z,100606.28
2023-12-05T03:52:21.901Z,100608.00
2023-12-05T03:57:49.835Z,100614.84
2023-12-05T04:00:25.296Z,100617.72
2023-12-05T04:02:59.419Z,100606.91
2023-12-05T04:05:32.723Z,100608.16
2023-12-05T04:08:04.974Z,100608.16
2023-12-05T04:10:37.689Z,100607.97
2023-12-05T04:13:10.285Z,100607.00
2023-12-05T04:15:46.299Z,100603.47
2023-12-05T04:18:18.683Z,100595.72
2023-12-05T04:20:51.482Z,100589.78
2023-12-05T04:23:25.398Z,100600.19
2023-12-05T04:26:00.655Z,100590.84
2023-12-05T04:28:33.712Z,100591.94
2023-12-05T04:31:09.401Z,100598.34
2023-12-05T04:33:42.871Z,100592.16
2023-12-05T04:36:17.480Z,100596.09
2023-12-05T04:38:49.777Z,100605.38
2023-12-05T04:41:22.272Z,100595.06
2023-12-05T04:43:54.515Z,100592.34
2023-12-05T04:46:29.994Z,100593.97
2023-12-05T04:49:02.330Z,100599.94
2023-12-05T04:51:35.509Z,100593.00
2023-12-05T04:54:07.893Z,100595.91
2023-12-05T04:56:40.504Z,100591.88
2023-12-05T04:59:12.921Z,100585.75
2023-12-05T05:01:48.196Z,100576.53
2023-12-05T05:04:20.880Z,100577.59
2023-12-05T05:06:54.084Z,100573.69
2023-12-05T05:09:26.258Z,100579.53
2023-12-05T05:11:58.690Z,100581.78
2023-12-05T05:14:31.066Z,100569.53
2023-12-05T05:17:08.734Z,100569.63
2023-12-05T05:19:40.934Z,100572.41
2023-12-05T05:22:13.511Z,100574.25
2023-12-05T05:24:45.897Z,100570.59
2023-12-05T05:27:18.860Z,100576.44
2023-12-05T05:29:51.278Z,100579.63
2023-12-05T05:32:27.097Z,100568.34
2023-12-05T05:34:59.494Z,100575.97
2023-12-05T05:37:32.091Z,100568.63
2023-12-05T05:40:04.227Z,100567.69
2023-12-05T05:42:36.914Z,100574.44
2023-12-05T05:45:09.993Z,100589.44
2023-12-05T05:47:45.769Z,100583.50
2023-12-05T05:50:20.994Z,100590.09
2023-12-05T05:52:53.872Z,100584.53
2023-12-05T05:55:27.634Z,100598.50
2023-12-05T05:58:00.110Z,100600.75
2023-12-05T06:00:32.419Z,100598.81
2023-12-05T06:03:08.080Z,100598.88
2023-12-05T06:05:40.422Z,100597.94
2023-12-05T06:08:13.331Z,100604.19
2023-12-05T06:10:45.499Z,100593.06
2023-12-05T06:13:18.490Z,100598.25
2023-12-05T06:15:50.674Z,100601.81
2023-12-05T06:18:26.110Z,100595.22
2023-12-05T06:20:59.373Z,100599.53
2023-12-05T06:23:32.093Z,100598.06
2023-12-05T06:26:07.414Z,100602.19
2023-12-05T06:28:40.501Z,100588.81
2023-12-05T06:31:13.082Z,100589.56
2023-12-05T06:33:48.507Z,100591.72
2023-12-05T06:36:22.659Z,100593.91
2023-12-05T06:38:55.347Z,100597.00
2023-12-05T06:41:27.873Z,100603.31
2023-12-05T06:44:00.502Z,100596.72
2023-12-05T06:46:32.882Z,100599.16
2023-12-05T06:49:08.430Z,100602.75
2023-12-05T06:51:41.319Z,100597.47
2023-12-05T06:54:13.946Z,100591.88
2023-12-05T06:56:46.269Z,100593.25
2023-12-05T06:59:18.936Z,100588.53
2023-12-05T07:01:51.443Z,100587.94
2023-12-05T07:04:27.117Z,100580.25
2023-12-05T07:07:01.109Z,100584.28
2023-12-05T07:09:36.109Z,100585.06
2023-12-05T07:12:09.612Z,100575.16
2023-12-05T07:14:42.655Z,100582.59
2023-12-05T07:17:15.373Z,100585.44
2023-12-05T07:19:51.349Z,100584.75
2023-12-05T07:22:24.131Z,100587.56
2023-12-05T07:24:57.179Z,100586.63
2023-12-05T07:27:30.232Z,100589.75
2023-12-05T07:30:03.292Z,100585.78
2023-12-05T07:32:36.031Z,100583.44
2023-12-05T07:35:12.332Z,100581.47
2023-12-05T07:37:45.190Z,100580.81
2023-12-05T07:40:18.994Z,100591.59
2023-12-05T07:42:51.599Z,100591.81
2023-12-05T07:45:24.772Z,100605.19
2023-12-05T07:47:57.656Z,100596.44
2023-12-05T07:50:33.385Z,100598.44
2023-12-05T07:53:06.089Z,100597.00
2023-12-05T07:55:39.339Z,100595.28
2023-12-05T07:58:12.055Z,100596.06
2023-12-05T08:00:45.234Z,100597.75
2023-12-05T08:03:18.094Z,100597.47
2023-12-05T08:05:53.996Z,100595.69
2023-12-05T08:08:26.772Z,100601.34
2023-12-05T08:10:59.734Z,100597.38
2023-12-05T08:13:32.843Z,100594.00
2023-12-05T08:16:05.953Z,100599.66
2023-12-05T08:18:38.722Z,100603.13
2023-12-05T08:21:14.900Z,100598.47
2023-12-05T08:23:47.130Z,100589.19
2023-12-05T08:26:19.732Z,100596.22
2023-12-05T08:28:52.021Z,100599.06
2023-12-05T08:31:24.653Z,100601.03
2023-12-05T08:33:57.259Z,100598.78
2023-12-05T08:36:33.584Z,100592.06
2023-12-05T08:39:05.848Z,100594.91
2023-12-05T08:41:38.451Z,100603.22
2023-12-05T08:44:10.813Z,100597.00
2023-12-05T08:46:43.418Z,100606.03
2023-12-05T08:49:16.035Z,100599.31
2023-12-05T08:51:51.599Z,100605.63
2023-12-05T08:54:23.909Z,100603.81
2023-12-05T08:56:56.571Z,100606.34
2023-12-05T08:59:28.816Z,100612.31
2023-12-05T09:02:02.370Z,100604.19
2023-12-05T09:04:35.563Z,100603.72
2023-12-05T09:07:11.228Z,100608.44
2023-12-05T09:09:44.241Z,100599.41
2023-12-05T09:12:16.991Z,100602.78
2023-12-05T09:14:49.371Z,100605.81
2023-12-05T09:17:22.935Z,100611.28
2023-12-05T09:19:55.216Z,100606.56
2023-12-05T09:22:30.739Z,100610.38
2023-12-05T09:25:03.338Z,100604.44
2023-12-05T09:27:36.270Z,100608.53
2023-12-05T09:30:10.474Z,100603.56
2023-12-05T09:32:43.307Z,100605.72
2023-12-05T09:35:15.665Z,100609.94
2023-12-05T09:37:51.417Z,100607.56
2023-12-05T09:40:23.890Z,100601.34
2023-12-05T09:42:59.067Z,100597.88
2023-12-05T09:45:37.083Z,100598.06
2023-12-05T09:48:13.182Z,100597.19
2023-12-05T09:50:45.614Z,100596.44
2023-12-05T09:53:21.971Z,100592.66
2023-12-05T09:55:54.667Z,100594.69
2023-12-05T09:58:27.907Z,100596.16
2023-12-05T10:01:03.209Z,100587.72
2023-12-05T10:03:40.891Z,100585.41
2023-12-05T10:06:16.465Z,100584.31
2023-12-05T10:08:56.371Z,100583.91
2023-12-05T10:11:32.182Z,100585.94
2023-12-05T10:14:05.560Z,100589.09
2023-12-05T10:16:39.274Z,100590.09
2023-12-05T10:19:14.589Z,100584.22
2023-12-05T10:21:49.160Z,100583.75
2023-12-05T10:24:44.717Z,100578.50
2023-12-05T10:27:20.017Z,100571.00
2023-12-05T10:29:52.258Z,100560.53
2023-12-05T10:32:31.816Z,100567.81
2023-12-05T10:35:05.531Z,100554.41
2023-12-05T10:37:46.625Z,100557.69
2023-12-05T10:40:27.307Z,100563.28
2023-12-05T10:42:59.744Z,100550.19
2023-12-05T10:45:33.162Z,100556.81
2023-12-05T10:48:08.659Z,100550.19
2023-12-05T10:50:40.930Z,100548.69
2023-12-05T10:53:15.380Z,100545.22
2023-12-05T10:55:50.374Z,100543.19
2023-12-05T10:58:23.812Z,100537.69
2023-12-05T11:00:56.676Z,100547.09
2023-12-05T11:03:32.675Z,100538.97
2023-12-05T11:06:08.528Z,100536.84
2023-12-05T11:08:41.323Z,100536.59
2023-12-05T11:11:19.049Z,100532.47
2023-12-05T11:13:52.883Z,100536.69
2023-12-05T11:16:29.968Z,100534.16
2023-12-05T11:19:12.839Z,100523.94
2023-12-05T11:21:59.427Z,100523.78
2023-12-05T11:24:53.148Z,100527.88
2023-12-05T11:27:45.743Z,100527.75
2023-12-05T11:30:37.470Z,100526.69
2023-12-05T11:33:21.518Z,100524.50
2023-12-05T11:36:10.020Z,100529.19
2023-12-05T11:38:47.468Z,100528.25
2023-12-05T11:41:22.321Z,100529.03
2023-12-05T11:44:52.276Z,100528.22
2023-12-05T11:48:22.752Z,100529.91
2023-12-05T11:50:57.617Z,100521.28
2023-12-05T11:53:42.684Z,100523.28
2023-12-05T11:56:23.184Z,100522.38
2023-12-05T11:58:55.106Z,100524.22
2023-12-05T12:01:26.587Z,100531.63
2023-12-05T12:04:01.247Z,100521.69
2023-12-05T12:06:38.124Z,100516.38
2023-12-05T12:09:13.467Z,100516.63
2023-12-05T12:11:46.473Z,100514.81
2023-12-05T12:14:20.995Z,100518.91
2023-12-05T12:16:55.108Z,100515.38
2023-12-05T12:19:27.273Z,100516.69
2023-12-05T12:22:01.979Z,100526.16
2023-12-05T12:24:35.177Z,100518.22
2023-12-05T12:27:09.008Z,100520.88
2023-12-05T12:29:41.543Z,100525.47
2023-12-05T12:32:15.628Z,100518.38
2023-12-05T12:34:50.033Z,100519.38
2023-12-05T12:37:27.594Z,100519.78
2023-12-05T12:40:02.734Z,100522.97
2023-12-05T12:42:35.395Z,100521.06
2023-12-05T12:45:09.567Z,100522.81
2023-12-05T12:47:41.521Z,100521.25
2023-12-05T12:50:13.917Z,100517.00
2023-12-05T12:52:51.023Z,100520.25
2023-12-05T12:55:36.094Z,100514.50
2023-12-05T12:58:08.983Z,100512.16
2023-12-05T13:00:43.649Z,100508.28
2023-12-05T13:03:16.105Z,100504.66
2023-12-05T13:05:48.499Z,100505.53
2023-12-05T13:08:23.998Z,100515.06
2023-12-05T13:10:57.033Z,100509.13
2023-12-05T13:13:29.178Z,100516.56
2023-12-05T13:16:01.118Z,100514.41
2023-12-05T13:18:50.520Z,100518.06
2023-12-05T13:21:37.042Z,100515.34
2023-12-05T13:24:14.151Z,100514.66
2023-12-05T13:26:48.014Z,100515.13
2023-12-05T13:29:21.276Z,100520.66
2023-12-05T13:31:54.448Z,100516.41
2023-12-05T13:34:28.672Z,100512.97
2023-12-05T13:37:01.557Z,100510.00
2023-12-05T13:39:36.404Z,100511.09
2023-12-05T13:42:08.603Z,100517.88
2023-12-05T13:44:44.900Z,100515.44
2023-12-05T13:47:17.030Z,100519.88
2023-12-05T13:49:49.727Z,100522.63
2023-12-05T13:52:29.535Z,100524.78
2023-12-05T13:55:05.535Z,100523.47
2023-12-05T13:57:37.689Z,100524.13
2023-12-05T14:00:28.902Z,100526.56
2023-12-05T14:03:07.584Z,100528.69
2023-12-05T14:05:43.505Z,100526.56
2023-12-05T14:08:16.452Z,100521.19
2023-12-05T14:10:52.189Z,100526.00
2023-12-05T14:13:25.063Z,100526.28
2023-12-05T14:15:59.617Z,100530.28
2023-12-05T14:18:36.094Z,100529.47
2023-12-05T14:21:10.362Z,100528.09
2023-12-05T14:23:42.768Z,100533.16
2023-12-05T14:26:17.524Z,100528.38
2023-12-05T14:28:49.449Z,100532.06
2023-12-05T14:31:21.200Z,100533.63
2023-12-05T14:33:53.250Z,100526.16
2023-12-05T14:36:26.664Z,100524.34
2023-12-05T14:39:07.945Z,100529.50
2023-12-05T14:41:46.921Z,100533.56
2023-12-05T14:44:20.228Z,100530.78
2023-12-05T14:46:54.178Z,100533.75
2023-12-05T14:49:28.021Z,100538.81
2023-12-05T14:51:59.587Z,100533.41
2023-12-05T14:54:32.455Z,100540.47
2023-12-05T14:57:06.939Z,100539.06
2023-12-05T14:59:39.809Z,100543.59
2023-12-05T15:02:13.246Z,100549.13
2023-12-05T15:04:50.425Z,100545.28
2023-12-05T15:07:26.746Z,100557.50
2023-12-05T15:10:03.963Z,100555.81
2023-12-05T15:12:40.869Z,100558.34
2023-12-05T15:15:19.233Z,100556.94
2023-12-05T15:17:58.627Z,100558.44
2023-12-05T15:20:34.477Z,100563.28
2023-12-05T15:23:12.344Z,100567.22
2023-12-05T15:25:49.458Z,100559.03
2023-12-05T15:28:29.826Z,100559.72
2023-12-05T15:31:06.417Z,100564.63
2023-12-05T15:33:37.973Z,100574.16
2023-12-05T15:36:12.877Z,100579.59
2023-12-05T15:38:45.718Z,100563.50
2023-12-05T15:41:18.971Z,100567.97
2023-12-05T15:43:53.748Z,100568.13
2023-12-05T15:46:26.637Z,100569.53
2023-12-05T15:49:00.242Z,100570.66
2023-12-05T15:51:39.702Z,100564.44
2023-12-05T15:54:11.216Z,100562.59
2023-12-05T15:56:43.344Z,100563.88
2023-12-05T15:59:20.962Z,100563.88
2023-12-05T16:01:52.829Z,100558.75
2023-12-05T16:04:24.737Z,100566.47
2023-12-05T16:06:58.538Z,100566.72
2023-12-05T16:09:33.419Z,100575.50
2023-12-05T16:12:05.526Z,100565.72
2023-12-05T16:14:42.231Z,100572.38
2023-12-05T16:17:13.984Z,100564.16
2023-12-05T16:19:45.779Z,100565.28
2023-12-05T16:22:17.794Z,100570.47
2023-12-05T16:24:49.449Z,100563.72
2023-12-05T16:27:22.118Z,100566.75
2023-12-05T16:29:57.041Z,100571.16
2023-12-05T16:32:30.250Z,100570.78
2023-12-05T16:35:02.802Z,100567.41
2023-12-05T16:37:36.555Z,100572.38
2023-12-05T16:40:23.223Z,100576.41
2023-12-05T16:42:56.022Z,100570.34
2023-12-05T16:45:30.812Z,100580.63
2023-12-05T16:48:05.510Z,100582.66
2023-12-05T16:50:37.868Z,100585.28
2023-12-05T16:53:11.379Z,100591.94
2023-12-05T16:55:44.171Z,100590.25
2023-12-05T16:58:20.676Z,100593.97
2023-12-05T17:00:56.826Z,100593.06
2023-12-05T17:03:29.193Z,100595.34
2023-12-05T17:06:01.351Z,100596.88
2023-12-05T17:08:34.394Z,100593.03
2023-12-05T17:11:07.016Z,100598.19
2023-12-05T17:13:38.949Z,100595.53
2023-12-05T17:16:13.663Z,100591.53
2023-12-05T17:18:47.661Z,100590.66
2023-12-05T17:21:20.763Z,100598.56
2023-12-05T17:23:53.250Z,100597.22
2023-12-05T17:26:26.274Z,100597.03
2023-12-05T17:28:58.234Z,100597.31
2023-12-05T17:31:32.800Z,100600.84
2023-12-05T17:34:05.134Z,100597.66
2023-12-05T17:36:37.110Z,100601.44
2023-12-05T17:39:08.844Z,100600.53
2023-12-05T17:41:40.592Z,100603.59
2023-12-05T17:44:12.333Z,100602.22
2023-12-05T17:46:46.669Z,100595.25
2023-12-05T17:49:19.643Z,100602.94
2023-12-05T17:51:56.691Z,100603.81
2023-12-05T17:54:47.952Z,100604.06
2023-12-05T17:57:24.070Z,100604.84
2023-12-05T17:59:59.147Z,100599.34
2023-12-05T18:02:36.266Z,100598.75
2023-12-05T18:05:10.379Z,100602.13
2023-12-05T18:07:54.458Z,100601.28
2023-12-05T18:10:31.236Z,100597.25
2023-12-05T18:13:03.155Z,100605.38
2023-12-05T18:15:35.945Z,100603.72
2023-12-05T18:18:15.668Z,100613.50
2023-12-05T18:21:21.413Z,100602.25
2023-12-05T18:23:54.312Z,100613.19
2023-12-05T18:26:29.587Z,100608.84
2023-12-05T18:29:01.913Z,100612.69
2023-12-05T18:31:34.482Z,100614.22
2023-12-05T18:34:09.808Z,100609.25
2023-12-05T18:36:42.445Z,100612.00
2023-12-05T18:39:14.815Z,100614.94
2023-12-05T18:41:47.649Z,100610.09
2023-12-05T18:44:19.799Z,100613.00
2023-12-05T18:46:52.488Z,100612.88
2023-12-05T18:49:29.225Z,100611.88
2023-12-05T18:52:02.620Z,100615.03
2023-12-05T18:54:39.581Z,100629.94
2023-12-05T18:57:13.920Z,100619.06
2023-12-05T18:59:47.048Z,100623.25
2023-12-05T19:02:20.090Z,100623.56
2023-12-05T19:04:57.204Z,100622.09
2023-12-05T19:07:30.402Z,100624.09
2023-12-05T19:10:08.153Z,100622.13
2023-12-05T19:19:19.421Z,100624.19
2023-12-05T19:21:54.506Z,100620.00
2023-12-05T19:24:26.469Z,100623.09
2023-12-05T19:27:00.665Z,100629.50
2023-12-05T19:29:33.737Z,100623.78
2023-12-05T19:32:08.766Z,100629.69
2023-12-05T19:34:43.859Z,100626.84
2023-12-05T19:37:22.039Z,100631.09
2023-12-05T19:39:53.940Z,100624.44
2023-12-05T19:42:27.635Z,100625.06
2023-12-05T19:44:59.691Z,100625.91
2023-12-05T19:47:34.881Z,100628.25
2023-12-05T19:50:15.406Z,100622.25
2023-12-05T19:52:51.086Z,100622.53
2023-12-05T19:55:26.950Z,100627.41
2023-12-05T19:58:01.580Z,100615.38
2023-12-05T20:00:34.074Z,100623.19
2023-12-05T20:03:08.797Z,100623.31
2023-12-05T20:05:40.976Z,100624.88
2023-12-05T20:08:16.196Z,100631.09
2023-12-05T20:10:50.350Z,100626.00
2023-12-05T20:13:22.631Z,100628.50
2023-12-05T20:15:55.845Z,100622.50
2023-12-05T20:18:30.731Z,100625.84
2023-12-05T20:21:03.067Z,100633.88
2023-12-05T20:23:38.213Z,100628.91
2023-12-05T20:26:10.276Z,100630.53
2023-12-05T20:28:42.599Z,100635.13
2023-12-05T20:31:15.347Z,100633.06
2023-12-05T20:33:47.945Z,100638.13
2023-12-05T20:36:19.928Z,100631.34
2023-12-05T20:38:55.223Z,100641.25
2023-12-05T20:41:27.221Z,100642.97
2023-12-05T20:44:00.124Z,100650.38
2023-12-05T20:46:32.197Z,100646.22
2023-12-05T20:49:06.250Z,100643.38
2023-12-05T20:51:52.648Z,100644.72
2023-12-05T20:54:27.732Z,100639.38
2023-12-05T20:56:59.805Z,100640.63
2023-12-05T20:59:32.366Z,100634.94
2023-12-05T21:02:06.488Z,100639.16
2023-12-05T21:04:44.627Z,100646.47
2023-12-05T21:07:20.085Z,100643.47
2023-12-05T21:09:55.364Z,100644.78
2023-12-05T21:12:27.361Z,100651.78
2023-12-05T21:15:12.338Z,100642.78
2023-12-05T21:17:47.746Z,100638.16
2023-12-05T21:20:23.211Z,100656.34
2023-12-05T21:23:06.683Z,100654.50
2023-12-05T21:25:41.662Z,100653.66
2023-12-05T21:28:17.476Z,100654.28
2023-12-05T21:30:55.831Z,100665.09
2023-12-05T21:33:27.943Z,100657.66
2023-12-05T21:36:00.811Z,100653.56
2023-12-05T21:38:34.668Z,100660.66
2023-12-05T21:41:12.201Z,100652.31
2023-12-05T21:43:44.125Z,100655.56
2023-12-05T21:46:24.962Z,100649.47
2023-12-05T21:48:57.085Z,100648.06
2023-12-05T21:51:32.211Z,100645.75
2023-12-05T21:54:04.557Z,100648.50
2023-12-05T21:56:41.672Z,100653.44
2023-12-05T21:59:16.999Z,100646.28
2023-12-05T22:01:52.100Z,100652.41
2023-12-05T22:04:25.497Z,100659.53
2023-12-05T22:06:59.768Z,100661.28
2023-12-05T22:09:32.424Z,100654.56
2023-12-05T22:12:07.766Z,100654.22
2023-12-05T22:14:42.227Z,100656.78
2023-12-05T22:17:19.724Z,100660.44
2023-12-05T22:19:51.330Z,100662.28
2023-12-05T22:22:24.951Z,100662.59
2023-12-05T22:25:00.032Z,100658.88
2023-12-05T22:34:31.675Z,100661.53
2023-12-05T22:37:16.937Z,100670.66
2023-12-05T22:39:49.521Z,100659.94
2023-12-05T22:45:07.964Z,100659.31
2023-12-05T22:47:42.665Z,100655.38
2023-12-05T22:50:14.643Z,100665.13
2023-12-05T22:52:46.656Z,100668.16
2023-12-05T22:55:18.556Z,100671.91
2023-12-05T22:57:50.702Z,100670.19
2023-12-05T23:00:25.653Z,100670.53
2023-12-05T23:03:04.994Z,100661.00
2023-12-05T23:05:37.573Z,100659.72
2023-12-05T23:08:09.766Z,100669.47
2023-12-05T23:10:41.383Z,100662.50
2023-12-05T23:13:13.486Z,100674.44
2023-12-05T23:15:45.354Z,100661.06
2023-12-05T23:18:20.871Z,100662.66
2023-12-05T23:20:53.689Z,100662.38
2023-12-05T23:23:25.665Z,100658.84
2023-12-05T23:25:58.100Z,100665.63
2023-12-05T23:28:31.537Z,100661.84
2023-12-05T23:31:04.876Z,100659.28
2023-12-05T23:33:39.850Z,100662.50
2023-12-05T23:36:13.271Z,100658.16
2023-12-05T23:38:45.360Z,100660.47
2023-12-05T23:41:19.896Z,100668.63
2023-12-05T23:43:52.300Z,100666.81
2023-12-05T23:46:23.999Z,100668.31
2023-12-05T23:48:58.745Z,100663.31
2023-12-05T23:51:30.559Z,100660.56
2023-12-05T23:54:02.510Z,100667.22
2023-12-05T23:56:34.559Z,100666.19
2023-12-05T23:59:06.775Z,100658.34
